createdAt,value
2019-06-10T00:01:12.382Z,5.90
2019-06-10T00:03:42.067Z,6.50
2019-06-10T00:06:11.672Z,6.43
2019-06-10T00:08:41.248Z,6.63
2019-06-10T00:11:11.647Z,6.73
2019-06-10T00:13:41.484Z,6.73
2019-06-10T00:16:11.826Z,6.33
2019-06-10T00:18:43.069Z,7.00
2019-06-10T00:21:11.181Z,7.30
2019-06-10T00:23:41.285Z,6.93
2019-06-10T00:26:12.391Z,7.03
2019-06-10T00:28:40.724Z,6.63
2019-06-10T00:31:11.528Z,7.27
2019-06-10T00:33:41.420Z,7.37
2019-06-10T00:36:13.404Z,6.90
2019-06-10T00:38:41.182Z,8.00
2019-06-10T00:41:13.979Z,8.07
2019-06-10T00:43:41.179Z,8.27
2019-06-10T00:46:13.061Z,8.33
2019-06-10T00:48:40.979Z,8.43
2019-06-10T00:51:12.923Z,8.27
2019-06-10T00:53:42.261Z,8.43
2019-06-10T00:56:12.816Z,8.47
2019-06-10T00:58:40.882Z,8.80
2019-06-10T01:01:14.011Z,8.93
2019-06-10T01:03:41.488Z,8.90
2019-06-10T01:06:14.632Z,8.40
2019-06-10T01:08:40.688Z,7.50
2019-06-10T01:11:12.601Z,7.90
2019-06-10T01:13:41.395Z,7.40
2019-06-10T01:16:12.136Z,7.20
2019-06-10T01:18:41.636Z,6.93
2019-06-10T01:21:12.172Z,6.93
2019-06-10T01:23:41.604Z,7.13
2019-06-10T01:26:14.127Z,6.80
2019-06-10T01:28:41.010Z,6.87
2019-06-10T01:31:13.119Z,7.40
2019-06-10T01:33:41.103Z,7.03
2019-06-10T01:36:12.603Z,6.80
2019-06-10T01:38:40.959Z,6.60
2019-06-10T01:41:11.134Z,6.53
2019-06-10T01:43:40.777Z,6.60
2019-06-10T01:46:11.727Z,6.60
2019-06-10T01:48:45.032Z,6.57
2019-06-10T01:51:13.117Z,6.63
2019-06-10T01:53:42.126Z,6.70
2019-06-10T01:56:12.792Z,6.53
2019-06-10T01:58:41.009Z,7.43
2019-06-10T02:01:17.401Z,7.20
2019-06-10T02:03:44.296Z,6.87
2019-06-10T02:06:16.588Z,6.50
2019-06-10T02:08:43.177Z,7.10
2019-06-10T02:11:14.468Z,7.00
2019-06-10T02:13:42.221Z,7.10
2019-06-10T02:16:14.193Z,6.60
2019-06-10T02:18:44.969Z,6.93
2019-06-10T02:21:14.335Z,6.37
2019-06-10T02:23:41.515Z,6.37
2019-06-10T02:26:11.838Z,6.50
2019-06-10T02:28:40.668Z,6.47
2019-06-10T02:31:12.709Z,6.03
2019-06-10T02:33:41.978Z,6.50
2019-06-10T02:36:13.906Z,5.97
2019-06-10T02:38:40.479Z,6.50
2019-06-10T02:41:09.750Z,6.03
2019-06-10T02:43:39.771Z,6.13
2019-06-10T02:46:08.410Z,6.77
2019-06-10T02:48:36.979Z,6.50
2019-06-10T02:51:07.098Z,6.33
2019-06-10T02:53:37.167Z,6.90
2019-06-10T02:56:08.100Z,6.03
2019-06-10T02:58:39.918Z,6.20
2019-06-10T03:01:07.670Z,6.80
2019-06-10T03:03:43.748Z,6.40
2019-06-10T03:06:08.945Z,6.00
2019-06-10T03:08:37.382Z,5.97
2019-06-10T03:11:06.143Z,6.20
2019-06-10T03:13:35.407Z,5.90
2019-06-10T03:16:17.888Z,5.90
2019-06-10T03:18:46.455Z,5.90
2019-06-10T03:21:15.957Z,5.63
2019-06-10T03:23:44.562Z,5.90
2019-06-10T03:26:13.181Z,5.53
2019-06-10T03:28:42.824Z,5.50
2019-06-10T03:31:15.108Z,5.83
2019-06-10T03:33:47.261Z,5.37
2019-06-10T03:36:12.660Z,6.37
2019-06-10T03:38:43.243Z,5.50
2019-06-10T03:41:12.443Z,5.83
2019-06-10T03:43:42.947Z,6.55
2019-06-10T03:46:13.576Z,5.60
2019-06-10T03:48:43.364Z,5.97
2019-06-10T03:51:12.675Z,6.17
2019-06-10T03:53:42.576Z,5.40
2019-06-10T03:56:12.751Z,5.07
2019-06-10T03:58:43.086Z,5.17
2019-06-10T04:01:12.417Z,4.93
2019-06-10T04:03:42.824Z,5.30
2019-06-10T04:06:13.038Z,5.20
2019-06-10T04:08:43.383Z,5.70
2019-06-10T04:11:12.453Z,5.23
2019-06-10T04:13:43.163Z,5.37
2019-06-10T04:16:13.012Z,5.53
2019-06-10T04:18:43.082Z,5.83
2019-06-10T04:21:12.859Z,5.57
2019-06-10T04:23:42.411Z,5.70
2019-06-10T04:26:12.739Z,5.60
2019-06-10T04:28:42.972Z,5.50
2019-06-10T04:31:13.520Z,6.00
2019-06-10T04:33:42.588Z,6.00
2019-06-10T04:36:13.262Z,6.20
2019-06-10T04:38:43.284Z,6.20
2019-06-10T04:41:12.587Z,5.93
2019-06-10T04:43:43.133Z,5.60
2019-06-10T04:46:12.668Z,5.87
2019-06-10T04:48:42.671Z,5.80
2019-06-10T04:51:12.925Z,6.10
2019-06-10T04:53:43.476Z,5.83
2019-06-10T04:56:12.430Z,5.67
2019-06-10T04:58:43.243Z,6.00
2019-06-10T05:01:12.326Z,5.90
2019-06-10T05:03:43.145Z,6.07
2019-06-10T05:06:12.266Z,5.80
2019-06-10T05:08:42.657Z,5.60
2019-06-10T05:11:12.832Z,5.13
2019-06-10T05:13:42.998Z,4.97
2019-06-10T05:16:12.570Z,5.10
2019-06-10T05:18:42.393Z,5.40
2019-06-10T05:21:13.089Z,5.33
2019-06-10T05:23:43.064Z,5.20
2019-06-10T05:26:13.360Z,4.83
2019-06-10T05:28:43.233Z,5.40
2019-06-10T05:31:12.932Z,5.10
2019-06-10T05:33:42.595Z,5.07
2019-06-10T05:36:13.200Z,4.40
2019-06-10T05:38:43.563Z,4.70
2019-06-10T05:41:13.403Z,4.63
2019-06-10T05:43:42.989Z,4.87
2019-06-10T05:46:13.347Z,4.43
2019-06-10T05:48:43.822Z,4.10
2019-06-10T05:51:12.620Z,4.13
2019-06-10T05:53:42.629Z,4.40
2019-06-10T05:56:12.810Z,4.00
2019-06-10T05:58:43.639Z,4.00
2019-06-10T06:01:13.180Z,4.20
2019-06-10T06:03:43.864Z,3.97
2019-06-10T06:06:13.688Z,4.10
2019-06-10T06:08:43.060Z,3.60
2019-06-10T06:11:12.699Z,3.70
2019-06-10T06:13:43.181Z,3.80
2019-06-10T06:16:12.557Z,3.80
2019-06-10T06:18:42.184Z,3.63
2019-06-10T06:21:22.482Z,3.80
2019-06-10T06:23:43.834Z,3.60
2019-06-10T06:26:16.408Z,3.47
2019-06-10T06:28:43.384Z,3.40
2019-06-10T06:31:14.031Z,3.30
2019-06-10T06:33:43.279Z,3.10
2019-06-10T06:36:12.770Z,3.37
2019-06-10T06:38:43.828Z,3.50
2019-06-10T06:41:13.662Z,3.23
2019-06-10T06:43:45.223Z,3.60
2019-06-10T06:46:12.966Z,3.70
2019-06-10T06:48:43.767Z,3.40
2019-06-10T06:51:13.022Z,3.47
2019-06-10T06:53:50.601Z,3.73
2019-06-10T06:56:12.713Z,3.50
2019-06-10T06:58:43.329Z,3.33
2019-06-10T07:01:14.664Z,3.70
2019-06-10T07:03:44.976Z,3.40
2019-06-10T07:06:14.656Z,3.37
2019-06-10T07:09:00.443Z,3.47
2019-06-10T07:11:19.318Z,3.60
2019-06-10T07:13:47.893Z,3.53
2019-06-10T07:16:16.448Z,3.53
2019-06-10T07:18:49.992Z,3.10
2019-06-10T07:21:15.233Z,3.10
2019-06-10T07:23:46.847Z,3.37
2019-06-10T07:26:14.002Z,3.23
2019-06-10T07:28:46.650Z,3.20
2019-06-10T07:31:23.640Z,3.10
2019-06-10T07:33:46.838Z,2.87
2019-06-10T07:36:13.438Z,2.90
2019-06-10T07:38:47.008Z,2.90
2019-06-10T07:41:12.754Z,3.10
2019-06-10T07:43:47.548Z,3.20
2019-06-10T07:46:13.360Z,3.07
2019-06-10T07:48:46.174Z,3.10
2019-06-10T07:51:13.180Z,3.07
2019-06-10T07:53:46.146Z,2.70
2019-06-10T07:56:13.007Z,3.47
2019-06-10T07:58:47.449Z,6.33
2019-06-10T08:01:13.381Z,3.27
2019-06-10T08:03:45.051Z,2.97
2019-06-10T08:06:12.807Z,3.00
2019-06-10T08:08:45.268Z,2.90
2019-06-10T08:11:14.019Z,2.60
2019-06-10T08:13:45.894Z,2.63
2019-06-10T08:16:13.440Z,2.80
2019-06-10T08:19:12.234Z,2.57
2019-06-10T08:21:12.600Z,2.83
2019-06-10T08:23:45.001Z,2.80
2019-06-10T08:26:12.719Z,2.83
2019-06-10T08:28:42.589Z,2.80
2019-06-10T08:31:12.405Z,2.63
2019-06-10T08:33:44.282Z,2.60
2019-06-10T08:36:13.595Z,2.70
2019-06-10T08:38:45.037Z,2.43
2019-06-10T08:41:12.349Z,2.60
2019-06-10T08:43:44.755Z,2.87
2019-06-10T08:46:13.184Z,2.37
2019-06-10T08:48:45.856Z,2.20
2019-06-10T08:51:12.687Z,2.60
2019-06-10T08:53:44.107Z,2.30
2019-06-10T08:56:13.005Z,2.33
2019-06-10T08:58:47.390Z,2.37
2019-06-10T09:01:13.496Z,2.30
2019-06-10T09:03:46.350Z,2.40
2019-06-10T09:06:13.328Z,1.90
2019-06-10T09:08:46.367Z,2.30
2019-06-10T09:11:13.136Z,2.10
2019-06-10T09:13:45.447Z,2.20
2019-06-10T09:16:18.549Z,2.30
2019-06-10T09:18:47.285Z,1.90
2019-06-10T09:21:12.941Z,2.10
2019-06-10T09:23:44.050Z,1.93
2019-06-10T09:26:12.633Z,2.03
2019-06-10T09:28:45.063Z,2.20
2019-06-10T09:31:14.134Z,2.10
2019-06-10T09:33:46.640Z,1.60
2019-06-10T09:36:12.570Z,1.90
2019-06-10T09:38:45.339Z,2.00
2019-06-10T09:41:14.119Z,1.90
2019-06-10T09:43:46.706Z,2.10
2019-06-10T09:46:13.991Z,2.07
2019-06-10T09:48:48.599Z,2.00
2019-06-10T09:51:14.703Z,2.30
2019-06-10T09:53:54.555Z,2.30
2019-06-10T09:56:13.546Z,1.60
2019-06-10T09:58:46.288Z,1.40
2019-06-10T10:01:13.255Z,1.70
2019-06-10T10:03:47.208Z,1.67
2019-06-10T10:06:15.650Z,1.50
2019-06-10T10:08:46.036Z,1.67
2019-06-10T10:11:13.543Z,1.90
2019-06-10T10:13:45.255Z,2.20
2019-06-10T10:16:13.179Z,1.80
2019-06-10T10:18:45.868Z,2.00
2019-06-10T10:21:13.075Z,2.20
2019-06-10T10:23:52.521Z,1.90
2019-06-10T10:26:13.062Z,2.00
2019-06-10T10:28:46.193Z,1.70
2019-06-10T10:31:14.532Z,2.30
2019-06-10T10:33:44.236Z,1.93
2019-06-10T10:36:14.206Z,2.03
2019-06-10T10:38:42.902Z,1.87
2019-06-10T10:41:13.424Z,2.05
2019-06-10T10:43:43.716Z,1.90
2019-06-10T10:46:13.959Z,1.80
2019-06-10T10:48:42.993Z,1.70
2019-06-10T10:51:13.197Z,1.80
2019-06-10T10:53:48.198Z,1.73
2019-06-10T10:56:13.102Z,1.70
2019-06-10T10:58:43.699Z,2.07
2019-06-10T11:01:15.064Z,1.60
2019-06-10T11:03:45.455Z,1.57
2019-06-10T11:06:13.386Z,1.80
2019-06-10T11:08:44.160Z,1.77
2019-06-10T11:11:15.042Z,1.47
2019-06-10T11:13:45.633Z,1.60
2019-06-10T11:16:14.699Z,1.40
2019-06-10T11:18:43.311Z,1.70
2019-06-10T11:21:13.342Z,1.63
2019-06-10T11:23:43.616Z,1.50
2019-06-10T11:26:13.168Z,1.30
2019-06-10T11:28:43.101Z,1.40
2019-06-10T11:31:13.952Z,1.40
2019-06-10T11:33:43.456Z,1.50
2019-06-10T11:36:13.511Z,1.40
2019-06-10T11:38:42.410Z,1.20
2019-06-10T11:41:13.577Z,1.10
2019-06-10T11:43:42.924Z,1.30
2019-06-10T11:46:13.678Z,1.10
2019-06-10T11:48:43.517Z,1.27
2019-06-10T11:51:12.955Z,1.40
2019-06-10T11:53:43.735Z,1.20
2019-06-10T11:56:13.103Z,1.30
2019-06-10T11:58:42.703Z,1.37
2019-06-10T12:01:13.085Z,1.27
2019-06-10T12:03:43.355Z,1.30
2019-06-10T12:06:13.571Z,1.30
2019-06-10T12:08:43.663Z,1.50
2019-06-10T12:11:12.911Z,1.60
2019-06-10T12:13:42.898Z,1.50
2019-06-10T12:18:42.911Z,1.40
2019-06-10T12:21:13.177Z,1.50
2019-06-10T12:23:43.520Z,1.57
2019-06-10T12:26:12.275Z,1.40
2019-06-10T12:28:43.221Z,1.50
2019-06-10T12:31:13.577Z,1.50
2019-06-10T12:33:42.110Z,1.50
2019-06-10T12:36:12.840Z,1.70
2019-06-10T12:38:43.441Z,1.33
2019-06-10T12:41:14.050Z,1.30
2019-06-10T12:43:43.230Z,1.50
2019-06-10T12:46:12.710Z,1.27
2019-06-10T12:48:42.744Z,1.50
2019-06-10T12:51:13.473Z,1.43
2019-06-10T12:53:43.312Z,1.40
2019-06-10T12:56:15.075Z,1.53
2019-06-10T12:58:43.384Z,1.50
2019-06-10T13:01:12.415Z,1.70
2019-06-10T13:03:43.561Z,1.40
2019-06-10T13:06:12.986Z,1.62
2019-06-10T13:08:43.818Z,1.45
2019-06-10T13:11:15.026Z,1.40
2019-06-10T13:13:45.258Z,1.30
2019-06-10T13:16:14.517Z,1.45
2019-06-10T13:18:43.528Z,1.70
2019-06-10T13:21:17.247Z,1.45
2019-06-10T13:23:43.231Z,1.70
2019-06-10T13:26:16.027Z,1.50
2019-06-10T13:28:44.088Z,1.55
2019-06-10T13:31:13.993Z,1.45
2019-06-10T13:33:43.230Z,1.65
2019-06-10T13:36:13.594Z,1.65
2019-06-10T13:38:42.875Z,1.65
2019-06-10T13:41:11.618Z,1.60
2019-06-10T13:43:40.175Z,1.40
2019-06-10T13:46:10.799Z,1.62
2019-06-10T13:48:38.977Z,1.40
2019-06-10T13:51:11.795Z,1.35
2019-06-10T13:53:37.864Z,1.30
2019-06-10T13:56:30.419Z,1.42
2019-06-10T13:58:36.638Z,1.30
2019-06-10T14:01:10.091Z,1.37
2019-06-10T14:03:35.795Z,1.57
2019-06-10T14:06:20.949Z,1.60
2019-06-10T14:08:35.526Z,1.60
2019-06-10T14:11:07.463Z,1.65
2019-06-10T14:13:34.305Z,1.50
2019-06-10T14:16:03.506Z,1.77
2019-06-10T14:18:33.466Z,1.60
2019-06-10T14:21:06.423Z,1.47
2019-06-10T14:23:33.203Z,1.57
2019-06-10T14:26:03.194Z,1.47
2019-06-10T14:28:40.724Z,1.65
2019-06-10T14:31:06.812Z,1.60
2019-06-10T14:33:33.117Z,1.40
2019-06-10T14:36:05.085Z,1.70
2019-06-10T14:38:32.831Z,1.57
2019-06-10T14:41:03.435Z,1.67
2019-06-10T14:43:33.375Z,1.60
2019-06-10T14:46:02.856Z,1.50
2019-06-10T14:48:33.479Z,1.70
2019-06-10T14:51:03.400Z,1.50
2019-06-10T14:53:33.760Z,1.52
2019-06-10T14:56:03.575Z,1.72
2019-06-10T14:58:32.240Z,1.40
2019-06-10T15:01:04.361Z,1.60
2019-06-10T15:03:32.889Z,1.60
2019-06-10T15:06:03.133Z,1.87
2019-06-10T15:08:32.297Z,1.70
2019-06-10T15:11:01.048Z,1.40
2019-06-10T15:13:29.610Z,1.70
2019-06-10T15:15:58.341Z,1.20
2019-06-10T15:18:26.893Z,1.35
2019-06-10T15:20:55.542Z,1.40
2019-06-10T15:23:24.204Z,1.37
2019-06-10T15:25:56.039Z,1.45
2019-06-10T15:28:23.611Z,1.55
2019-06-10T15:30:52.863Z,1.70
2019-06-10T15:33:23.624Z,1.60
2019-06-10T15:35:53.324Z,1.30
2019-06-10T15:38:23.152Z,1.45
2019-06-10T15:40:53.187Z,1.32
2019-06-10T15:43:23.326Z,1.55
2019-06-10T15:45:53.063Z,1.60
2019-06-10T15:48:25.343Z,1.62
2019-06-10T15:50:52.345Z,1.50
2019-06-10T15:53:28.601Z,1.80
2019-06-10T15:56:22.548Z,1.43
2019-06-10T15:58:27.425Z,1.60
2019-06-10T16:00:56.154Z,1.70
2019-06-10T16:03:25.684Z,1.70
2019-06-10T16:05:54.543Z,1.90
2019-06-10T16:08:23.108Z,1.80
2019-06-10T16:10:52.669Z,1.90
2019-06-10T16:13:25.570Z,2.73
2019-06-10T16:15:53.370Z,1.73
2019-06-10T16:18:25.919Z,2.20
2019-06-10T16:20:52.972Z,2.20
2019-06-10T16:23:24.629Z,2.30
2019-06-10T16:25:53.358Z,2.53
2019-06-10T16:28:23.499Z,3.47
2019-06-10T16:30:53.800Z,3.00
2019-06-10T16:33:26.080Z,3.30
2019-06-10T16:35:53.247Z,5.97
2019-06-10T16:38:24.180Z,2.70
2019-06-10T16:40:53.585Z,3.00
2019-06-10T16:43:25.789Z,4.67
2019-06-10T16:45:53.215Z,3.27
2019-06-10T16:48:23.481Z,3.10
2019-06-10T16:50:54.374Z,3.70
2019-06-10T16:53:28.024Z,2.30
2019-06-10T16:55:53.193Z,3.10
2019-06-10T16:58:26.253Z,3.17
2019-06-10T17:00:52.123Z,2.33
2019-06-10T17:03:24.725Z,2.47
2019-06-10T17:05:53.086Z,3.13
2019-06-10T17:08:25.992Z,4.00
2019-06-10T17:10:52.677Z,2.93
2019-06-10T17:13:24.952Z,2.70
2019-06-10T17:15:53.850Z,3.20
2019-06-10T17:18:26.262Z,1.80
2019-06-10T17:20:54.489Z,3.17
2019-06-10T17:23:26.958Z,2.90
2019-06-10T17:25:57.117Z,2.83
2019-06-10T17:28:29.724Z,2.43
2019-06-10T17:30:58.296Z,1.77
2019-06-10T17:33:28.275Z,2.60
2019-06-10T17:35:57.291Z,2.00
2019-06-10T17:38:26.933Z,1.70
2019-06-10T17:40:55.964Z,2.13
2019-06-10T17:43:25.215Z,2.33
2019-06-10T17:45:53.866Z,2.23
2019-06-10T17:48:24.196Z,2.07
2019-06-10T17:50:52.749Z,1.90
2019-06-10T17:53:22.258Z,1.70
2019-06-10T17:55:51.437Z,1.70
2019-06-10T17:58:33.367Z,1.90
2019-06-10T18:00:52.808Z,1.80
2019-06-10T18:03:23.164Z,1.50
2019-06-10T18:05:53.128Z,1.70
2019-06-10T18:08:22.955Z,1.50
2019-06-10T18:10:53.613Z,1.90
2019-06-10T18:13:24.632Z,2.00
2019-06-10T18:15:53.580Z,2.00
2019-06-10T18:18:24.121Z,1.67
2019-06-10T18:20:53.577Z,1.50
2019-06-10T18:23:23.362Z,1.90
2019-06-10T18:25:53.265Z,1.80
2019-06-10T18:28:22.681Z,2.00
2019-06-10T18:30:53.138Z,1.60
2019-06-10T18:33:23.019Z,1.70
2019-06-10T18:35:53.237Z,1.53
2019-06-10T18:38:22.152Z,2.00
2019-06-10T18:40:53.323Z,2.00
2019-06-10T18:43:22.953Z,1.60
2019-06-10T18:45:53.378Z,1.60
2019-06-10T18:48:23.168Z,1.90
2019-06-10T18:50:53.200Z,1.80
2019-06-10T18:53:23.550Z,1.80
2019-06-10T18:55:54.716Z,1.70
2019-06-10T18:58:22.643Z,1.50
2019-06-10T19:01:00.798Z,1.90
2019-06-10T19:03:23.364Z,1.50
2019-06-10T19:05:52.924Z,1.70
2019-06-10T19:08:22.297Z,1.60
2019-06-10T19:10:53.606Z,1.70
2019-06-10T19:13:22.476Z,1.50
2019-06-10T19:15:52.972Z,1.70
2019-06-10T19:18:23.263Z,1.90
2019-06-10T19:20:53.397Z,1.73
2019-06-10T19:23:22.932Z,1.50
2019-06-10T19:25:52.678Z,1.80
2019-06-10T19:28:22.950Z,1.70
2019-06-10T19:30:53.577Z,1.60
2019-06-10T19:33:23.507Z,1.60
2019-06-10T19:35:52.986Z,1.70
2019-06-10T19:38:23.079Z,1.70
2019-06-10T19:40:52.320Z,1.63
2019-06-10T19:43:21.480Z,1.80
2019-06-10T19:45:50.106Z,1.60
2019-06-10T19:48:18.682Z,1.80
2019-06-10T19:50:50.476Z,1.80
2019-06-10T19:53:18.682Z,1.60
2019-06-10T19:55:47.445Z,1.73
2019-06-10T19:58:16.222Z,1.50
2019-06-10T20:00:50.737Z,1.80
2019-06-10T20:03:15.059Z,1.70
2019-06-10T20:05:46.793Z,1.70
2019-06-10T20:08:15.010Z,1.87
2019-06-10T20:10:44.527Z,2.00
2019-06-10T20:13:13.523Z,1.70
2019-06-10T20:15:44.386Z,1.73
2019-06-10T20:18:13.975Z,1.60
2019-06-10T20:20:45.503Z,1.80
2019-06-10T20:23:13.587Z,1.70
2019-06-10T20:25:44.465Z,1.70
2019-06-10T20:28:13.192Z,1.57
2019-06-10T20:30:45.810Z,1.70
2019-06-10T20:33:14.048Z,1.53
2019-06-10T20:35:43.843Z,1.80
2019-06-10T20:38:13.097Z,1.70
2019-06-10T20:40:43.103Z,1.70
2019-06-10T20:43:13.254Z,1.80
2019-06-10T20:45:44.868Z,1.87
2019-06-10T20:48:12.491Z,2.00
2019-06-10T20:50:43.681Z,1.70
2019-06-10T20:53:17.646Z,1.60
2019-06-10T20:55:49.771Z,1.90
2019-06-10T20:58:12.417Z,1.70
2019-06-10T21:00:48.165Z,1.80
2019-06-10T21:03:11.615Z,1.70
2019-06-10T21:05:43.682Z,1.77
2019-06-10T21:08:12.434Z,1.80
2019-06-10T21:10:44.701Z,1.70
2019-06-10T21:13:12.321Z,1.70
2019-06-10T21:15:45.602Z,1.70
2019-06-10T21:18:13.232Z,1.90
2019-06-10T21:20:46.582Z,1.60
2019-06-10T21:23:15.951Z,1.60
2019-06-10T21:25:45.836Z,1.60
2019-06-10T21:28:13.122Z,1.60
2019-06-10T21:30:48.743Z,1.80
2019-06-10T21:33:13.027Z,1.90
2019-06-10T21:35:44.092Z,1.73
2019-06-10T21:38:12.717Z,1.80
2019-06-10T21:40:42.526Z,1.90
2019-06-10T21:43:12.961Z,1.80
2019-06-10T21:45:49.248Z,1.87
2019-06-10T21:48:13.788Z,1.70
2019-06-10T21:50:45.266Z,1.90
2019-06-10T21:53:13.264Z,1.80
2019-06-10T21:55:42.460Z,1.80
2019-06-10T21:58:12.943Z,2.23
2019-06-10T22:01:12.470Z,1.93
2019-06-10T22:03:32.276Z,1.80
2019-06-10T22:06:01.155Z,1.90
2019-06-10T22:08:29.706Z,1.90
2019-06-10T22:10:58.391Z,1.90
2019-06-10T22:13:26.943Z,1.70
2019-06-10T22:15:57.160Z,1.73
2019-06-10T22:18:27.078Z,1.90
2019-06-10T22:20:57.637Z,1.90
2019-06-10T22:23:25.903Z,1.83
2019-06-10T22:25:57.568Z,1.97
2019-06-10T22:28:24.669Z,1.90
2019-06-10T22:31:10.823Z,1.97
2019-06-10T22:33:23.467Z,2.00
2019-06-10T22:35:54.552Z,1.90
2019-06-10T22:38:22.335Z,2.03
2019-06-10T22:40:51.611Z,1.70
2019-06-10T22:43:23.365Z,1.90
2019-06-10T22:45:53.831Z,2.10
2019-06-10T22:48:22.457Z,2.00
2019-06-10T22:50:51.233Z,2.03
2019-06-10T22:53:23.001Z,2.10
2019-06-10T22:55:52.570Z,1.80
2019-06-10T22:58:23.591Z,2.20
2019-06-10T23:00:53.185Z,1.90
2019-06-10T23:03:21.986Z,1.80
2019-06-10T23:05:52.259Z,1.70
2019-06-10T23:08:22.998Z,1.90
2019-06-10T23:10:53.444Z,1.80
2019-06-10T23:13:23.078Z,1.90
2019-06-10T23:15:53.970Z,1.97
2019-06-10T23:18:22.499Z,2.10
2019-06-10T23:20:54.548Z,1.77
2019-06-10T23:23:23.318Z,2.00
2019-06-10T23:25:51.843Z,1.80
2019-06-10T23:28:22.281Z,1.80
2019-06-10T23:30:53.580Z,1.97
2019-06-10T23:33:22.889Z,1.90
2019-06-10T23:35:52.505Z,1.90
2019-06-10T23:38:23.621Z,1.83
2019-06-10T23:40:52.951Z,2.00
2019-06-10T23:43:22.551Z,1.80
2019-06-10T23:45:51.563Z,2.20
2019-06-10T23:48:22.538Z,2.10
2019-06-10T23:50:52.687Z,2.17
2019-06-10T23:53:23.012Z,2.23
2019-06-10T23:55:51.806Z,2.20
2019-06-10T23:58:22.734Z,2.13
